sensor_id;sensor_type;location;lat;lon;timestamp;pressure;altitude;pressure_sealevel;temperature;humidity
39555;BME280;25231;48.746;9.234;2023-02-18T00:01:02;97604.53;;;10.84;100.00
39555;BME280;25231;48.746;9.234;2023-02-18T00:03:32;97596.47;;;10.86;100.00
39555;BME280;25231;48.746;9.234;2023-02-18T00:05:58;97589.41;;;10.86;100.00
39555;BME280;25231;48.746;9.234;2023-02-18T00:08:23;97600.47;;;10.81;100.00
39555;BME280;25231;48.746;9.234;2023-02-18T00:10:48;97597.66;;;10.83;100.00
39555;BME280;25231;48.746;9.234;2023-02-18T00:13:14;97597.88;;;10.81;100.00
39555;BME280;25231;48.746;9.234;2023-02-18T00:15:39;97599.13;;;10.72;100.00
39555;BME280;25231;48.746;9.234;2023-02-18T00:18:05;97608.16;;;10.76;100.00
39555;BME280;25231;48.746;9.234;2023-02-18T00:20:31;97604.75;;;10.76;100.00
39555;BME280;25231;48.746;9.234;2023-02-18T00:22:58;97616.03;;;10.83;100.00
39555;BME280;25231;48.746;9.234;2023-02-18T00:25:24;97602.91;;;10.83;100.00
39555;BME280;25231;48.746;9.234;2023-02-18T00:27:49;97596.66;;;10.84;100.00
39555;BME280;25231;48.746;9.234;2023-02-18T00:30:15;97597.44;;;10.91;100.00
39555;BME280;25231;48.746;9.234;2023-02-18T00:32:40;97598.66;;;10.89;100.00
39555;BME280;25231;48.746;9.234;2023-02-18T00:35:06;97603.91;;;10.82;100.00
39555;BME280;25231;48.746;9.234;2023-02-18T00:37:31;97601.06;;;10.90;100.00
39555;BME280;25231;48.746;9.234;2023-02-18T00:39:56;97601.91;;;10.84;100.00
39555;BME280;25231;48.746;9.234;2023-02-18T00:42:22;97594.00;;;10.91;100.00
39555;BME280;25231;48.746;9.234;2023-02-18T00:44:47;97601.91;;;10.84;100.00
39555;BME280;25231;48.746;9.234;2023-02-18T00:47:13;97600.47;;;10.88;100.00
39555;BME280;25231;48.746;9.234;2023-02-18T00:49:38;97590.81;;;10.82;100.00
39555;BME280;25231;48.746;9.234;2023-02-18T00:52:04;97579.75;;;10.80;100.00
39555;BME280;25231;48.746;9.234;2023-02-18T00:54:29;97575.69;;;10.84;100.00
39555;BME280;25231;48.746;9.234;2023-02-18T00:56:54;97582.34;;;10.80;100.00
39555;BME280;25231;48.746;9.234;2023-02-18T00:59:20;97579.91;;;10.85;100.00
39555;BME280;25231;48.746;9.234;2023-02-18T01:01:45;97583.56;;;10.77;100.00
39555;BME280;25231;48.746;9.234;2023-02-18T01:04:11;97578.94;;;10.79;100.00
39555;BME280;25231;48.746;9.234;2023-02-18T01:06:37;97568.00;;;10.82;100.00
39555;BME280;25231;48.746;9.234;2023-02-18T01:09:03;97571.72;;;10.68;100.00
39555;BME280;25231;48.746;9.234;2023-02-18T01:11:29;97580.13;;;10.77;100.00
39555;BME280;25231;48.746;9.234;2023-02-18T01:13:54;97581.34;;;10.81;100.00
39555;BME280;25231;48.746;9.234;2023-02-18T01:16:20;97580.13;;;10.77;100.00
39555;BME280;25231;48.746;9.234;2023-02-18T01:18:45;97584.38;;;10.78;100.00
39555;BME280;25231;48.746;9.234;2023-02-18T01:21:10;97574.13;;;10.70;100.00
39555;BME280;25231;48.746;9.234;2023-02-18T01:23:37;97574.25;;;10.81;100.00
39555;BME280;25231;48.746;9.234;2023-02-18T01:26:03;97558.59;;;10.75;100.00
39555;BME280;25231;48.746;9.234;2023-02-18T01:28:29;97570.53;;;10.64;100.00
39555;BME280;25231;48.746;9.234;2023-02-18T01:30:54;97572.91;;;10.66;100.00
39555;BME280;25231;48.746;9.234;2023-02-18T01:33:20;97569.66;;;10.70;100.00
39555;BME280;25231;48.746;9.234;2023-02-18T01:35:45;97565.47;;;10.69;100.00
39555;BME280;25231;48.746;9.234;2023-02-18T01:38:11;97556.81;;;10.62;100.00
39555;BME280;25231;48.746;9.234;2023-02-18T01:40:45;97561.66;;;10.59;100.00
39555;BME280;25231;48.746;9.234;2023-02-18T01:43:11;97560.78;;;10.71;100.00
39555;BME280;25231;48.746;9.234;2023-02-18T01:45:47;97562.84;;;10.69;100.00
39555;BME280;25231;48.746;9.234;2023-02-18T01:48:18;97548.94;;;10.62;100.00
39555;BME280;25231;48.746;9.234;2023-02-18T01:50:48;97553.59;;;10.60;100.00
39555;BME280;25231;48.746;9.234;2023-02-18T01:53:19;97555.22;;;10.55;100.00
39555;BME280;25231;48.746;9.234;2023-02-18T01:55:47;97549.16;;;10.54;100.00
39555;BME280;25231;48.746;9.234;2023-02-18T01:58:13;97548.97;;;10.49;100.00
39555;BME280;25231;48.746;9.234;2023-02-18T02:00:39;97547.00;;;10.38;100.00
39555;BME280;25231;48.746;9.234;2023-02-18T02:03:04;97546.41;;;10.36;100.00
39555;BME280;25231;48.746;9.234;2023-02-18T02:05:31;97543.56;;;10.37;100.00
39555;BME280;25231;48.746;9.234;2023-02-18T02:07:57;97547.59;;;10.40;100.00
39555;BME280;25231;48.746;9.234;2023-02-18T02:10:29;97552.25;;;10.31;100.00
39555;BME280;25231;48.746;9.234;2023-02-18T02:13:14;97540.59;;;10.27;100.00
39555;BME280;25231;48.746;9.234;2023-02-18T02:15:48;97545.00;;;10.40;100.00
39555;BME280;25231;48.746;9.234;2023-02-18T02:50:52;97522.34;;;10.59;100.00
39555;BME280;25231;48.746;9.234;2023-02-18T02:53:26;97531.22;;;10.58;100.00
39555;BME280;25231;48.746;9.234;2023-02-18T02:55:51;97523.34;;;10.58;100.00
39555;BME280;25231;48.746;9.234;2023-02-18T02:58:19;97520.13;;;10.56;100.00
39555;BME280;25231;48.746;9.234;2023-02-18T03:11:31;97519.34;;;10.49;100.00
39555;BME280;25231;48.746;9.234;2023-02-18T03:14:12;97522.41;;;10.39;100.00
39555;BME280;25231;48.746;9.234;2023-02-18T03:16:55;97534.50;;;10.40;100.00
39555;BME280;25231;48.746;9.234;2023-02-18T03:19:39;97529.91;;;10.35;100.00
39555;BME280;25231;48.746;9.234;2023-02-18T03:22:12;97519.19;;;10.37;100.00
39555;BME280;25231;48.746;9.234;2023-02-18T03:24:45;97524.44;;;10.37;100.00
39555;BME280;25231;48.746;9.234;2023-02-18T03:27:29;97512.78;;;10.26;100.00
39555;BME280;25231;48.746;9.234;2023-02-18T03:32:35;97505.50;;;10.15;100.00
39555;BME280;25231;48.746;9.234;2023-02-18T03:35:10;97499.91;;;10.18;100.00
39555;BME280;25231;48.746;9.234;2023-02-18T03:37:41;97502.97;;;9.95;100.00
39555;BME280;25231;48.746;9.234;2023-02-18T03:40:08;97496.28;;;10.06;100.00
39555;BME280;25231;48.746;9.234;2023-02-18T03:42:34;97493.69;;;9.93;100.00
39555;BME280;25231;48.746;9.234;2023-02-18T03:44:59;97486.44;;;9.95;100.00
39555;BME280;25231;48.746;9.234;2023-02-18T03:47:25;97490.47;;;9.91;100.00
39555;BME280;25231;48.746;9.234;2023-02-18T03:49:50;97479.38;;;9.95;100.00
39555;BME280;25231;48.746;9.234;2023-02-18T03:52:16;97494.72;;;9.85;100.00
39555;BME280;25231;48.746;9.234;2023-02-18T03:54:41;97498.34;;;9.78;100.00
39555;BME280;25231;48.746;9.234;2023-02-18T03:57:07;97505.63;;;9.69;100.00
39555;BME280;25231;48.746;9.234;2023-02-18T03:59:32;97508.81;;;9.65;100.00
39555;BME280;25231;48.746;9.234;2023-02-18T04:01:58;97513.06;;;9.72;100.00
39555;BME280;25231;48.746;9.234;2023-02-18T04:04:23;97508.44;;;9.68;100.00
39555;BME280;25231;48.746;9.234;2023-02-18T04:06:48;97506.00;;;9.66;100.00
39555;BME280;25231;48.746;9.234;2023-02-18T04:09:14;97508.81;;;9.71;100.00
39555;BME280;25231;48.746;9.234;2023-02-18T04:11:40;97503.41;;;9.59;100.00
39555;BME280;25231;48.746;9.234;2023-02-18T04:14:05;97510.84;;;9.69;100.00
39555;BME280;25231;48.746;9.234;2023-02-18T04:16:31;97513.88;;;9.73;100.00
39555;BME280;25231;48.746;9.234;2023-02-18T04:18:57;97497.72;;;9.82;100.00
39555;BME280;25231;48.746;9.234;2023-02-18T04:21:22;97496.53;;;9.78;100.00
39555;BME280;25231;48.746;9.234;2023-02-18T04:23:47;97498.34;;;9.71;100.00
39555;BME280;25231;48.746;9.234;2023-02-18T04:26:13;97494.13;;;9.77;100.00
39555;BME280;25231;48.746;9.234;2023-02-18T04:28:38;97487.50;;;9.68;100.00
39555;BME280;25231;48.746;9.234;2023-02-18T04:31:04;97491.69;;;9.75;100.00
39555;BME280;25231;48.746;9.234;2023-02-18T04:33:29;97485.47;;;9.70;100.00
39555;BME280;25231;48.746;9.234;2023-02-18T04:35:54;97480.44;;;9.62;100.00
39555;BME280;25231;48.746;9.234;2023-02-18T04:38:20;97476.59;;;9.64;100.00
39555;BME280;25231;48.746;9.234;2023-02-18T04:40:45;97487.50;;;9.68;100.00
39555;BME280;25231;48.746;9.234;2023-02-18T04:43:11;97489.50;;;9.59;100.00
39555;BME280;25231;48.746;9.234;2023-02-18T04:45:36;97495.53;;;9.53;100.00
39555;BME280;25231;48.746;9.234;2023-02-18T04:48:01;97497.97;;;9.48;100.00
39555;BME280;25231;48.746;9.234;2023-02-18T04:50:27;97494.75;;;9.46;100.00
39555;BME280;25231;48.746;9.234;2023-02-18T04:52:52;97498.78;;;9.55;100.00
39555;BME280;25231;48.746;9.234;2023-02-18T04:55:17;97504.19;;;9.60;100.00
39555;BME280;25231;48.746;9.234;2023-02-18T04:57:43;97499.00;;;9.47;100.00
39555;BME280;25231;48.746;9.234;2023-02-18T05:00:12;97499.56;;;9.42;100.00
39555;BME280;25231;48.746;9.234;2023-02-18T05:02:38;97506.84;;;9.47;100.00
39555;BME280;25231;48.746;9.234;2023-02-18T05:05:04;97503.19;;;9.48;100.00
39555;BME280;25231;48.746;9.234;2023-02-18T05:07:29;97500.56;;;9.48;100.00
39555;BME280;25231;48.746;9.234;2023-02-18T05:09:54;97495.94;;;9.43;100.00
39555;BME280;25231;48.746;9.234;2023-02-18T05:12:20;97500.59;;;9.35;100.00
39555;BME280;25231;48.746;9.234;2023-02-18T05:14:45;97497.78;;;9.30;100.00
39555;BME280;25231;48.746;9.234;2023-02-18T05:17:10;97500.78;;;9.33;100.00
39555;BME280;25231;48.746;9.234;2023-02-18T05:19:36;97504.81;;;9.29;100.00
39555;BME280;25231;48.746;9.234;2023-02-18T05:22:01;97509.44;;;9.34;100.00
39555;BME280;25231;48.746;9.234;2023-02-18T05:24:26;97506.00;;;9.27;100.00
39555;BME280;25231;48.746;9.234;2023-02-18T05:26:52;97505.63;;;9.30;100.00
39555;BME280;25231;48.746;9.234;2023-02-18T05:29:17;97505.19;;;9.26;100.00
39555;BME280;25231;48.746;9.234;2023-02-18T05:31:42;97495.75;;;9.32;100.00
39555;BME280;25231;48.746;9.234;2023-02-18T05:34:08;97491.31;;;9.26;100.00
39555;BME280;25231;48.746;9.234;2023-02-18T05:36:33;97492.34;;;9.25;100.00
39555;BME280;25231;48.746;9.234;2023-02-18T05:38:58;97486.69;;;9.21;100.00
39555;BME280;25231;48.746;9.234;2023-02-18T05:41:24;97485.06;;;9.20;100.00
39555;BME280;25231;48.746;9.234;2023-02-18T05:43:49;97490.53;;;9.18;100.00
39555;BME280;25231;48.746;9.234;2023-02-18T05:46:33;97487.31;;;9.23;100.00
39555;BME280;25231;48.746;9.234;2023-02-18T05:48:58;97489.13;;;9.29;100.00
39555;BME280;25231;48.746;9.234;2023-02-18T05:51:23;97483.50;;;9.19;100.00
39555;BME280;25231;48.746;9.234;2023-02-18T05:53:49;97478.84;;;9.21;100.00
39555;BME280;25231;48.746;9.234;2023-02-18T05:56:14;97477.03;;;9.28;100.00
39555;BME280;25231;48.746;9.234;2023-02-18T05:58:39;97491.13;;;9.21;100.00
39555;BME280;25231;48.746;9.234;2023-02-18T06:01:05;97485.50;;;9.30;100.00
39555;BME280;25231;48.746;9.234;2023-02-18T06:03:30;97484.69;;;9.30;100.00
39555;BME280;25231;48.746;9.234;2023-02-18T06:05:55;97482.06;;;9.36;100.00
39555;BME280;25231;48.746;9.234;2023-02-18T06:08:21;97481.47;;;9.34;100.00
39555;BME280;25231;48.746;9.234;2023-02-18T06:10:46;97485.72;;;9.35;100.00
39555;BME280;25231;48.746;9.234;2023-02-18T06:13:12;97483.09;;;9.35;100.00
39555;BME280;25231;48.746;9.234;2023-02-18T06:15:37;97481.88;;;9.31;100.00
39555;BME280;25231;48.746;9.234;2023-02-18T06:18:04;97488.09;;;9.37;100.00
39555;BME280;25231;48.746;9.234;2023-02-18T06:20:30;97485.47;;;9.37;100.00
39555;BME280;25231;48.746;9.234;2023-02-18T06:22:55;97481.47;;;9.34;100.00
39555;BME280;25231;48.746;9.234;2023-02-18T06:25:21;97488.50;;;9.21;100.00
39555;BME280;25231;48.746;9.234;2023-02-18T06:27:46;97492.72;;;9.22;100.00
39555;BME280;25231;48.746;9.234;2023-02-18T06:30:12;97487.13;;;9.25;100.00
39555;BME280;25231;48.746;9.234;2023-02-18T06:32:37;97483.69;;;9.24;100.00
39555;BME280;25231;48.746;9.234;2023-02-18T06:35:03;97486.28;;;9.31;100.00
39555;BME280;25231;48.746;9.234;2023-02-18T06:37:28;97484.09;;;9.41;100.00
39555;BME280;25231;48.746;9.234;2023-02-18T06:39:55;97487.91;;;9.45;100.00
39555;BME280;25231;48.746;9.234;2023-02-18T06:42:20;97485.69;;;9.48;100.00
39555;BME280;25231;48.746;9.234;2023-02-18T06:44:45;97483.25;;;9.60;100.00
39555;BME280;25231;48.746;9.234;2023-02-18T06:47:11;97488.91;;;9.57;100.00
39555;BME280;25231;48.746;9.234;2023-02-18T06:49:36;97492.16;;;9.52;100.00
39555;BME280;25231;48.746;9.234;2023-02-18T06:52:03;97490.13;;;9.61;100.00
39555;BME280;25231;48.746;9.234;2023-02-18T06:54:28;97486.06;;;9.65;100.00
39555;BME280;25231;48.746;9.234;2023-02-18T06:56:54;97494.72;;;9.72;100.00
39555;BME280;25231;48.746;9.234;2023-02-18T06:59:19;97492.81;;;10.76;100.00
39555;BME280;25231;48.746;9.234;2023-02-18T07:01:44;97495.69;;;11.00;100.00
39555;BME280;25231;48.746;9.234;2023-02-18T07:04:10;97487.72;;;10.43;100.00
39555;BME280;25231;48.746;9.234;2023-02-18T07:06:35;97488.34;;;10.39;100.00
39555;BME280;25231;48.746;9.234;2023-02-18T07:09:00;97496.03;;;10.27;100.00
39555;BME280;25231;48.746;9.234;2023-02-18T07:11:26;97494.03;;;10.10;100.00
39555;BME280;25231;48.746;9.234;2023-02-18T07:13:51;97492.06;;;10.18;100.00
39555;BME280;25231;48.746;9.234;2023-02-18T07:16:16;97490.59;;;10.16;100.00
39555;BME280;25231;48.746;9.234;2023-02-18T07:18:42;97492.88;;;10.19;100.00
39555;BME280;25231;48.746;9.234;2023-02-18T07:21:07;97487.19;;;10.09;100.00
39555;BME280;25231;48.746;9.234;2023-02-18T07:23:32;97483.78;;;10.21;100.00
39555;BME280;25231;48.746;9.234;2023-02-18T07:26:16;97484.75;;;10.33;100.00
39555;BME280;25231;48.746;9.234;2023-02-18T07:28:41;97486.97;;;10.36;100.00
39555;BME280;25231;48.746;9.234;2023-02-18T07:31:07;97488.97;;;10.34;100.00
39555;BME280;25231;48.746;9.234;2023-02-18T07:33:33;97482.50;;;10.37;100.00
39555;BME280;25231;48.746;9.234;2023-02-18T07:36:00;97487.91;;;10.49;100.00
39555;BME280;25231;48.746;9.234;2023-02-18T07:38:26;97481.25;;;10.53;100.00
39555;BME280;25231;48.746;9.234;2023-02-18T07:40:52;97473.94;;;10.61;100.00
39555;BME280;25231;48.746;9.234;2023-02-18T07:43:18;97469.25;;;10.70;100.00
39555;BME280;25231;48.746;9.234;2023-02-18T07:45:44;97460.97;;;10.73;100.00
39555;BME280;25231;48.746;9.234;2023-02-18T07:48:09;97462.97;;;10.71;100.00
39555;BME280;25231;48.746;9.234;2023-02-18T07:50:39;97463.63;;;10.66;100.00
39555;BME280;25231;48.746;9.234;2023-02-18T07:53:04;97465.38;;;10.79;100.00
39555;BME280;25231;48.746;9.234;2023-02-18T07:55:30;97472.88;;;10.75;100.00
39555;BME280;25231;48.746;9.234;2023-02-18T07:58:15;97459.41;;;10.97;100.00
39555;BME280;25231;48.746;9.234;2023-02-18T08:00:41;97464.13;;;11.13;100.00
39555;BME280;25231;48.746;9.234;2023-02-18T08:03:06;97455.88;;;11.09;100.00
39555;BME280;25231;48.746;9.234;2023-02-18T08:05:32;97470.06;;;11.26;100.00
39555;BME280;25231;48.746;9.234;2023-02-18T08:07:57;97465.34;;;11.10;100.00
39555;BME280;25231;48.746;9.234;2023-02-18T08:10:22;97461.00;;;11.29;100.00
39555;BME280;25231;48.746;9.234;2023-02-18T08:12:48;97466.91;;;11.43;100.00
39555;BME280;25231;48.746;9.234;2023-02-18T08:15:13;97459.00;;;11.24;100.00
39555;BME280;25231;48.746;9.234;2023-02-18T08:17:39;97450.91;;;11.26;100.00
39555;BME280;25231;48.746;9.234;2023-02-18T08:20:04;97461.19;;;11.27;100.00
39555;BME280;25231;48.746;9.234;2023-02-18T08:22:30;97463.94;;;11.39;100.00
39555;BME280;25231;48.746;9.234;2023-02-18T08:24:56;97465.34;;;11.42;100.00
39555;BME280;25231;48.746;9.234;2023-02-18T08:27:22;97468.06;;;11.53;100.00
39555;BME280;25231;48.746;9.234;2023-02-18T08:29:47;97469.28;;;11.51;100.00
39555;BME280;25231;48.746;9.234;2023-02-18T08:32:13;97469.78;;;11.59;100.00
39555;BME280;25231;48.746;9.234;2023-02-18T08:34:38;97461.72;;;11.61;100.00
39555;BME280;25231;48.746;9.234;2023-02-18T08:37:03;97457.28;;;11.61;100.00
39555;BME280;25231;48.746;9.234;2023-02-18T08:39:35;97457.63;;;11.65;99.94
39555;BME280;25231;48.746;9.234;2023-02-18T08:42:01;97457.91;;;11.82;99.35
39555;BME280;25231;48.746;9.234;2023-02-18T08:44:30;97458.69;;;11.82;99.34
39555;BME280;25231;48.746;9.234;2023-02-18T08:46:55;97449.03;;;12.01;98.01
39555;BME280;25231;48.746;9.234;2023-02-18T08:49:20;97456.63;;;11.91;97.38
39555;BME280;25231;48.746;9.234;2023-02-18T08:51:51;97440.03;;;11.90;97.45
39555;BME280;25231;48.746;9.234;2023-02-18T08:54:17;97443.91;;;11.88;97.82
39555;BME280;25231;48.746;9.234;2023-02-18T08:56:42;97444.56;;;12.01;96.02
39555;BME280;25231;48.746;9.234;2023-02-18T08:59:07;97457.41;;;12.09;95.43
39555;BME280;25231;48.746;9.234;2023-02-18T09:01:33;97450.25;;;12.17;95.16
39555;BME280;25231;48.746;9.234;2023-02-18T09:03:58;97442.22;;;12.30;94.20
39555;BME280;25231;48.746;9.234;2023-02-18T09:06:24;97445.13;;;12.22;94.23
39555;BME280;25231;48.746;9.234;2023-02-18T09:08:50;97439.88;;;12.22;93.69
39555;BME280;25231;48.746;9.234;2023-02-18T09:11:16;97430.97;;;12.23;94.13
39555;BME280;25231;48.746;9.234;2023-02-18T09:13:41;97434.19;;;12.25;93.10
39555;BME280;25231;48.746;9.234;2023-02-18T09:16:16;97440.75;;;12.34;92.33
39555;BME280;25231;48.746;9.234;2023-02-18T09:18:42;97430.22;;;12.34;91.44
39555;BME280;25231;48.746;9.234;2023-02-18T09:21:10;97429.63;;;12.20;92.66
39555;BME280;25231;48.746;9.234;2023-02-18T09:23:36;97425.84;;;12.28;91.70
39555;BME280;25231;48.746;9.234;2023-02-18T09:26:06;97420.88;;;12.38;90.99
39555;BME280;25231;48.746;9.234;2023-02-18T09:28:33;97415.00;;;12.54;90.15
39555;BME280;25231;48.746;9.234;2023-02-18T09:31:09;97418.47;;;12.66;88.88
39555;BME280;25231;48.746;9.234;2023-02-18T09:33:37;97424.16;;;12.93;88.15
39555;BME280;25231;48.746;9.234;2023-02-18T09:36:03;97420.63;;;12.99;86.80
39555;BME280;25231;48.746;9.234;2023-02-18T09:38:29;97405.28;;;12.96;86.73
39555;BME280;25231;48.746;9.234;2023-02-18T09:40:56;97402.63;;;12.84;88.06
39555;BME280;25231;48.746;9.234;2023-02-18T09:43:28;97404.13;;;12.80;88.69
39555;BME280;25231;48.746;9.234;2023-02-18T09:45:58;97408.13;;;12.83;88.80
39555;BME280;25231;48.746;9.234;2023-02-18T09:48:31;97412.22;;;12.79;87.46
39555;BME280;25231;48.746;9.234;2023-02-18T09:50:57;97409.59;;;12.79;87.69
39555;BME280;25231;48.746;9.234;2023-02-18T09:53:24;97408.13;;;12.95;87.40
39555;BME280;25231;48.746;9.234;2023-02-18T09:55:53;97400.34;;;12.88;86.65
39555;BME280;25231;48.746;9.234;2023-02-18T09:58:24;97407.34;;;12.94;86.25
39555;BME280;25231;48.746;9.234;2023-02-18T10:03:52;97423.97;;;12.76;86.37
39555;BME280;25231;48.746;9.234;2023-02-18T10:06:28;97409.94;;;12.82;86.90
39555;BME280;25231;48.746;9.234;2023-02-18T10:08:56;97419.00;;;12.86;86.79
39555;BME280;25231;48.746;9.234;2023-02-18T10:11:37;97413.75;;;12.86;86.03
39555;BME280;25231;48.746;9.234;2023-02-18T10:14:11;97413.94;;;12.73;86.51
39555;BME280;25231;48.746;9.234;2023-02-18T10:16:37;97411.97;;;12.69;86.57
39555;BME280;25231;48.746;9.234;2023-02-18T10:19:30;97412.19;;;12.67;86.69
39555;BME280;25231;48.746;9.234;2023-02-18T10:21:53;97405.94;;;12.80;86.00
39555;BME280;25231;48.746;9.234;2023-02-18T10:24:40;97411.75;;;12.82;86.23
39555;BME280;25231;48.746;9.234;2023-02-18T10:27:08;97414.78;;;12.97;85.23
39555;BME280;25231;48.746;9.234;2023-02-18T10:29:34;97411.75;;;12.82;86.02
39555;BME280;25231;48.746;9.234;2023-02-18T10:37:43;97418.41;;;12.84;85.11
39555;BME280;25231;48.746;9.234;2023-02-18T10:40:34;97421.97;;;13.20;83.36
39555;BME280;25231;48.746;9.234;2023-02-18T10:43:19;97416.56;;;13.15;83.05
39555;BME280;25231;48.746;9.234;2023-02-18T10:48:54;97406.81;;;13.04;82.99
39555;BME280;25231;48.746;9.234;2023-02-18T10:51:29;97420.22;;;13.14;82.42
39555;BME280;25231;48.746;9.234;2023-02-18T10:53:56;97416.06;;;13.06;81.90
39555;BME280;25231;48.746;9.234;2023-02-18T11:02:00;97416.00;;;13.24;80.61
39555;BME280;25231;48.746;9.234;2023-02-18T11:04:35;97413.00;;;13.21;80.77
39555;BME280;25231;48.746;9.234;2023-02-18T11:07:13;97409.59;;;13.32;80.86
39555;BME280;25231;48.746;9.234;2023-02-18T11:09:49;97399.63;;;13.46;79.48
39555;BME280;25231;48.746;9.234;2023-02-18T11:12:19;97401.81;;;13.49;79.70
39555;BME280;25231;48.746;9.234;2023-02-18T11:14:50;97401.94;;;13.42;79.98
39555;BME280;25231;48.746;9.234;2023-02-18T11:17:30;97390.59;;;13.42;78.97
39555;BME280;25231;48.746;9.234;2023-02-18T11:19:58;97385.22;;;13.37;79.80
39555;BME280;25231;48.746;9.234;2023-02-18T11:22:30;97382.59;;;13.37;80.00
39555;BME280;25231;48.746;9.234;2023-02-18T11:25:03;97382.44;;;13.43;79.45
39555;BME280;25231;48.746;9.234;2023-02-18T11:27:42;97377.66;;;13.28;79.95
39555;BME280;25231;48.746;9.234;2023-02-18T11:30:41;97368.25;;;13.21;79.80
39555;BME280;25231;48.746;9.234;2023-02-18T11:33:15;97370.19;;;13.49;78.76
39555;BME280;25231;48.746;9.234;2023-02-18T11:35:57;97357.28;;;13.36;78.46
39555;BME280;25231;48.746;9.234;2023-02-18T11:38:34;97370.34;;;13.54;77.77
39555;BME280;25231;48.746;9.234;2023-02-18T11:41:31;97374.69;;;13.48;77.98
39555;BME280;25231;48.746;9.234;2023-02-18T11:44:02;97367.13;;;13.52;77.25
39555;BME280;25231;48.746;9.234;2023-02-18T11:46:32;97365.75;;;13.38;76.98
39555;BME280;25231;48.746;9.234;2023-02-18T11:49:20;97352.13;;;13.29;77.61
39555;BME280;25231;48.746;9.234;2023-02-18T11:51:47;97346.75;;;13.47;77.23
39555;BME280;25231;48.746;9.234;2023-02-18T11:54:27;97350.19;;;13.59;76.61
39555;BME280;25231;48.746;9.234;2023-02-18T11:57:13;97350.72;;;13.73;75.36
39555;BME280;25231;48.746;9.234;2023-02-18T11:59:40;97345.63;;;13.83;75.30
39555;BME280;25231;48.746;9.234;2023-02-18T12:07:33;97340.16;;;13.85;74.52
39555;BME280;25231;48.746;9.234;2023-02-18T12:10:10;97334.69;;;13.63;74.66
39555;BME280;25231;48.746;9.234;2023-02-18T12:13:02;97335.00;;;13.78;74.33
39555;BME280;25231;48.746;9.234;2023-02-18T12:16:04;97332.50;;;13.71;73.88
39555;BME280;25231;48.746;9.234;2023-02-18T12:18:42;97328.81;;;13.72;72.98
39555;BME280;25231;48.746;9.234;2023-02-18T12:21:29;97338.69;;;13.65;73.45
39555;BME280;25231;48.746;9.234;2023-02-18T12:24:21;97329.66;;;13.61;73.64
39555;BME280;25231;48.746;9.234;2023-02-18T12:27:28;97327.28;;;13.88;71.97
39555;BME280;25231;48.746;9.234;2023-02-18T12:36:10;97318.66;;;13.76;71.59
39555;BME280;25231;48.746;9.234;2023-02-18T13:05:49;97306.63;;;13.68;68.64
39555;BME280;25231;48.746;9.234;2023-02-18T13:08:37;97311.44;;;13.60;69.30
39555;BME280;25231;48.746;9.234;2023-02-18T13:11:19;97306.53;;;13.52;69.42
39555;BME280;25231;48.746;9.234;2023-02-18T13:16:40;97299.06;;;13.60;68.99
39555;BME280;25231;48.746;9.234;2023-02-18T13:19:21;97298.41;;;13.53;69.13
39555;BME280;25231;48.746;9.234;2023-02-18T13:21:50;97286.41;;;13.34;69.80
39555;BME280;25231;48.746;9.234;2023-02-18T13:24:26;97301.09;;;13.30;70.55
39555;BME280;25231;48.746;9.234;2023-02-18T13:26:57;97294.53;;;13.32;69.92
39555;BME280;25231;48.746;9.234;2023-02-18T13:29:36;97287.81;;;13.37;69.31
39555;BME280;25231;48.746;9.234;2023-02-18T13:32:16;97290.03;;;13.56;68.99
39555;BME280;25231;48.746;9.234;2023-02-18T13:38:14;97273.59;;;13.38;68.67
39555;BME280;25231;48.746;9.234;2023-02-18T13:40:44;97265.97;;;13.24;69.08
39555;BME280;25231;48.746;9.234;2023-02-18T13:45:41;97277.72;;;13.22;69.25
39555;BME280;25231;48.746;9.234;2023-02-18T13:48:26;97267.66;;;13.30;68.93
39555;BME280;25231;48.746;9.234;2023-02-18T13:50:53;97265.97;;;13.24;68.64
39555;BME280;25231;48.746;9.234;2023-02-18T13:53:21;97266.06;;;13.29;68.10
39555;BME280;25231;48.746;9.234;2023-02-18T13:56:00;97271.22;;;13.36;68.22
39555;BME280;25231;48.746;9.234;2023-02-18T13:58:35;97268.91;;;13.40;68.22
39555;BME280;25231;48.746;9.234;2023-02-18T14:03:34;97253.19;;;13.45;68.01
39555;BME280;25231;48.746;9.234;2023-02-18T14:06:18;97258.13;;;13.41;67.65
39555;BME280;25231;48.746;9.234;2023-02-18T14:08:44;97247.59;;;13.41;68.12
39555;BME280;25231;48.746;9.234;2023-02-18T14:16:23;97245.69;;;13.25;69.98
39555;BME280;25231;48.746;9.234;2023-02-18T14:18:57;97231.97;;;13.23;69.90
39555;BME280;25231;48.746;9.234;2023-02-18T14:21:43;97239.97;;;13.28;70.02
39555;BME280;25231;48.746;9.234;2023-02-18T14:24:10;97239.97;;;13.28;70.21
39555;BME280;25231;48.746;9.234;2023-02-18T14:26:45;97230.34;;;13.22;69.91
39555;BME280;25231;48.746;9.234;2023-02-18T14:29:16;97211.38;;;13.20;69.53
39555;BME280;25231;48.746;9.234;2023-02-18T14:31:53;97223.91;;;13.41;68.85
39555;BME280;25231;48.746;9.234;2023-02-18T14:37:09;97223.19;;;13.46;68.79
39555;BME280;25231;48.746;9.234;2023-02-18T14:43:03;97229.06;;;13.36;69.60
39555;BME280;25231;48.746;9.234;2023-02-18T14:45:57;97220.38;;;13.36;69.78
39555;BME280;25231;48.746;9.234;2023-02-18T14:51:14;97222.59;;;13.55;69.05
39555;BME280;25231;48.746;9.234;2023-02-18T14:53:44;97213.78;;;13.50;68.93
39555;BME280;25231;48.746;9.234;2023-02-18T14:56:13;97226.16;;;13.49;69.00
39555;BME280;25231;48.746;9.234;2023-02-18T14:58:42;97222.47;;;13.62;68.74
39555;BME280;25231;48.746;9.234;2023-02-18T15:01:21;97228.22;;;13.59;68.85
39555;BME280;25231;48.746;9.234;2023-02-18T15:03:52;97238.16;;;13.57;68.77
39555;BME280;25231;48.746;9.234;2023-02-18T15:08:52;97236.16;;;13.47;69.53
39555;BME280;25231;48.746;9.234;2023-02-18T15:11:19;97230.53;;;13.44;69.11
39555;BME280;25231;48.746;9.234;2023-02-18T15:13:47;97231.78;;;13.53;69.35
39555;BME280;25231;48.746;9.234;2023-02-18T15:16:18;97236.78;;;13.54;69.64
39555;BME280;25231;48.746;9.234;2023-02-18T15:18:52;97232.31;;;13.55;69.73